sensor_id;sensor_type;location;lat;lon;timestamp;P1;durP1;ratioP1;P2;durP2;ratioP2
77581;SDS011;66726;52.388;9.986;2023-02-04T00:02:08;29.20;;;5.82;;
77581;SDS011;66726;52.388;9.986;2023-02-04T00:04:36;24.77;;;6.03;;
77581;SDS011;66726;52.388;9.986;2023-02-04T00:07:06;31.58;;;6.75;;
77581;SDS011;66726;52.388;9.986;2023-02-04T00:09:34;23.15;;;6.00;;
77581;SDS011;66726;52.388;9.986;2023-02-04T00:12:04;28.38;;;6.47;;
77581;SDS011;66726;52.388;9.986;2023-02-04T00:14:32;28.20;;;6.57;;
77581;SDS011;66726;52.388;9.986;2023-02-04T00:17:00;28.05;;;6.50;;
77581;SDS011;66726;52.388;9.986;2023-02-04T00:19:28;25.20;;;5.88;;
77581;SDS011;66726;52.388;9.986;2023-02-04T00:21:56;18.60;;;4.50;;
77581;SDS011;66726;52.388;9.986;2023-02-04T00:24:24;14.93;;;4.20;;
77581;SDS011;66726;52.388;9.986;2023-02-04T00:26:53;11.97;;;3.00;;
77581;SDS011;66726;52.388;9.986;2023-02-04T00:29:22;11.18;;;3.30;;
77581;SDS011;66726;52.388;9.986;2023-02-04T00:31:50;13.57;;;3.53;;
77581;SDS011;66726;52.388;9.986;2023-02-04T00:34:18;12.50;;;3.42;;
77581;SDS011;66726;52.388;9.986;2023-02-04T00:36:46;12.20;;;3.55;;
77581;SDS011;66726;52.388;9.986;2023-02-04T00:39:14;11.57;;;3.10;;
77581;SDS011;66726;52.388;9.986;2023-02-04T00:41:42;11.95;;;3.25;;
77581;SDS011;66726;52.388;9.986;2023-02-04T00:44:10;11.77;;;3.63;;
77581;SDS011;66726;52.388;9.986;2023-02-04T00:46:41;10.30;;;3.08;;
77581;SDS011;66726;52.388;9.986;2023-02-04T00:49:09;10.40;;;3.47;;
77581;SDS011;66726;52.388;9.986;2023-02-04T00:51:38;9.48;;;2.80;;
77581;SDS011;66726;52.388;9.986;2023-02-04T00:54:11;10.43;;;2.78;;
77581;SDS011;66726;52.388;9.986;2023-02-04T00:56:41;9.55;;;2.72;;
77581;SDS011;66726;52.388;9.986;2023-02-04T00:59:09;7.65;;;2.45;;
77581;SDS011;66726;52.388;9.986;2023-02-04T01:01:38;7.83;;;2.40;;
77581;SDS011;66726;52.388;9.986;2023-02-04T01:04:07;6.25;;;2.42;;
77581;SDS011;66726;52.388;9.986;2023-02-04T01:06:35;6.18;;;2.00;;
77581;SDS011;66726;52.388;9.986;2023-02-04T01:09:04;5.50;;;2.15;;
77581;SDS011;66726;52.388;9.986;2023-02-04T01:11:32;7.97;;;2.38;;
77581;SDS011;66726;52.388;9.986;2023-02-04T01:14:01;6.13;;;2.43;;
77581;SDS011;66726;52.388;9.986;2023-02-04T01:16:29;6.75;;;2.30;;
77581;SDS011;66726;52.388;9.986;2023-02-04T01:18:57;5.85;;;1.88;;
77581;SDS011;66726;52.388;9.986;2023-02-04T01:21:30;6.07;;;2.20;;
77581;SDS011;66726;52.388;9.986;2023-02-04T01:23:58;5.05;;;1.95;;
77581;SDS011;66726;52.388;9.986;2023-02-04T01:26:27;5.32;;;2.30;;
77581;SDS011;66726;52.388;9.986;2023-02-04T01:28:55;6.15;;;1.83;;
77581;SDS011;66726;52.388;9.986;2023-02-04T01:31:23;6.60;;;2.20;;
77581;SDS011;66726;52.388;9.986;2023-02-04T01:33:52;5.75;;;1.88;;
77581;SDS011;66726;52.388;9.986;2023-02-04T01:36:20;6.38;;;2.13;;
77581;SDS011;66726;52.388;9.986;2023-02-04T01:38:49;4.05;;;1.90;;
77581;SDS011;66726;52.388;9.986;2023-02-04T01:41:17;5.75;;;1.98;;
77581;SDS011;66726;52.388;9.986;2023-02-04T01:43:46;2.97;;;1.60;;
77581;SDS011;66726;52.388;9.986;2023-02-04T01:46:15;3.70;;;1.77;;
77581;SDS011;66726;52.388;9.986;2023-02-04T01:48:43;2.75;;;1.63;;
77581;SDS011;66726;52.388;9.986;2023-02-04T01:51:14;3.28;;;1.50;;
77581;SDS011;66726;52.388;9.986;2023-02-04T01:53:52;2.75;;;1.40;;
77581;SDS011;66726;52.388;9.986;2023-02-04T01:56:21;2.35;;;1.35;;
77581;SDS011;66726;52.388;9.986;2023-02-04T01:58:52;2.10;;;1.25;;
77581;SDS011;66726;52.388;9.986;2023-02-04T02:01:33;2.25;;;1.55;;
77581;SDS011;66726;52.388;9.986;2023-02-04T02:04:04;2.70;;;1.27;;
77581;SDS011;66726;52.388;9.986;2023-02-04T02:06:32;2.00;;;1.30;;
77581;SDS011;66726;52.388;9.986;2023-02-04T02:09:02;4.15;;;1.50;;
77581;SDS011;66726;52.388;9.986;2023-02-04T02:11:30;2.90;;;1.37;;
77581;SDS011;66726;52.388;9.986;2023-02-04T02:13:59;2.28;;;1.30;;
77581;SDS011;66726;52.388;9.986;2023-02-04T02:16:28;2.25;;;1.25;;
77581;SDS011;66726;52.388;9.986;2023-02-04T02:18:56;1.75;;;1.10;;
77581;SDS011;66726;52.388;9.986;2023-02-04T02:21:28;1.67;;;1.42;;
77581;SDS011;66726;52.388;9.986;2023-02-04T02:24:17;2.33;;;1.48;;
77581;SDS011;66726;52.388;9.986;2023-02-04T02:26:54;2.10;;;1.23;;
77581;SDS011;66726;52.388;9.986;2023-02-04T02:29:24;2.70;;;1.30;;
77581;SDS011;66726;52.388;9.986;2023-02-04T02:31:54;2.83;;;1.30;;
77581;SDS011;66726;52.388;9.986;2023-02-04T02:34:24;3.67;;;1.55;;
77581;SDS011;66726;52.388;9.986;2023-02-04T02:36:54;2.55;;;1.40;;
77581;SDS011;66726;52.388;9.986;2023-02-04T02:39:25;1.98;;;1.30;;
77581;SDS011;66726;52.388;9.986;2023-02-04T02:41:54;2.08;;;1.50;;
77581;SDS011;66726;52.388;9.986;2023-02-04T02:44:23;1.98;;;1.42;;
77581;SDS011;66726;52.388;9.986;2023-02-04T02:46:52;2.53;;;1.30;;
77581;SDS011;66726;52.388;9.986;2023-02-04T02:49:21;2.50;;;1.27;;
77581;SDS011;66726;52.388;9.986;2023-02-04T02:51:49;2.05;;;1.17;;
77581;SDS011;66726;52.388;9.986;2023-02-04T02:54:19;2.08;;;1.30;;
77581;SDS011;66726;52.388;9.986;2023-02-04T02:56:53;5.38;;;1.70;;
77581;SDS011;66726;52.388;9.986;2023-02-04T02:59:23;1.60;;;1.30;;
77581;SDS011;66726;52.388;9.986;2023-02-04T03:01:53;2.60;;;1.75;;
77581;SDS011;66726;52.388;9.986;2023-02-04T03:04:24;1.88;;;1.30;;
77581;SDS011;66726;52.388;9.986;2023-02-04T03:06:55;2.58;;;1.30;;
77581;SDS011;66726;52.388;9.986;2023-02-04T03:09:24;2.63;;;1.40;;
77581;SDS011;66726;52.388;9.986;2023-02-04T03:11:56;3.22;;;1.50;;
77581;SDS011;66726;52.388;9.986;2023-02-04T03:14:24;2.05;;;1.40;;
77581;SDS011;66726;52.388;9.986;2023-02-04T03:16:53;2.55;;;1.50;;
77581;SDS011;66726;52.388;9.986;2023-02-04T03:19:23;2.50;;;1.50;;
77581;SDS011;66726;52.388;9.986;2023-02-04T03:21:54;2.60;;;1.50;;
77581;SDS011;66726;52.388;9.986;2023-02-04T03:24:24;1.70;;;1.30;;
77581;SDS011;66726;52.388;9.986;2023-02-04T03:26:52;2.33;;;1.30;;
77581;SDS011;66726;52.388;9.986;2023-02-04T03:29:22;3.77;;;1.63;;
77581;SDS011;66726;52.388;9.986;2023-02-04T03:31:50;2.20;;;1.40;;
77581;SDS011;66726;52.388;9.986;2023-02-04T03:34:20;2.50;;;1.50;;
77581;SDS011;66726;52.388;9.986;2023-02-04T03:36:49;2.67;;;1.50;;
77581;SDS011;66726;52.388;9.986;2023-02-04T03:39:17;3.90;;;1.50;;
77581;SDS011;66726;52.388;9.986;2023-02-04T03:41:45;3.13;;;1.52;;
77581;SDS011;66726;52.388;9.986;2023-02-04T03:44:13;2.93;;;2.10;;
77581;SDS011;66726;52.388;9.986;2023-02-04T03:46:42;2.80;;;1.60;;
77581;SDS011;66726;52.388;9.986;2023-02-04T03:49:11;2.25;;;1.60;;
77581;SDS011;66726;52.388;9.986;2023-02-04T03:51:39;2.50;;;1.70;;
77581;SDS011;66726;52.388;9.986;2023-02-04T03:54:07;3.00;;;1.88;;
77581;SDS011;66726;52.388;9.986;2023-02-04T03:56:36;2.35;;;1.63;;
77581;SDS011;66726;52.388;9.986;2023-02-04T03:59:04;1.67;;;1.45;;
77581;SDS011;66726;52.388;9.986;2023-02-04T04:01:32;2.55;;;1.60;;
77581;SDS011;66726;52.388;9.986;2023-02-04T04:04:02;1.63;;;1.40;;
77581;SDS011;66726;52.388;9.986;2023-02-04T04:06:30;2.45;;;1.50;;
77581;SDS011;66726;52.388;9.986;2023-02-04T04:08:58;2.17;;;1.40;;
77581;SDS011;66726;52.388;9.986;2023-02-04T04:11:26;2.90;;;1.80;;
77581;SDS011;66726;52.388;9.986;2023-02-04T04:13:54;2.92;;;1.73;;
77581;SDS011;66726;52.388;9.986;2023-02-04T04:16:22;2.80;;;1.88;;
77581;SDS011;66726;52.388;9.986;2023-02-04T04:18:50;2.78;;;1.70;;
77581;SDS011;66726;52.388;9.986;2023-02-04T04:21:19;3.35;;;1.80;;
77581;SDS011;66726;52.388;9.986;2023-02-04T04:23:47;4.97;;;2.30;;
77581;SDS011;66726;52.388;9.986;2023-02-04T04:26:15;2.03;;;1.80;;
77581;SDS011;66726;52.388;9.986;2023-02-04T04:28:43;2.70;;;1.93;;
77581;SDS011;66726;52.388;9.986;2023-02-04T04:31:11;2.47;;;1.70;;
77581;SDS011;66726;52.388;9.986;2023-02-04T04:33:40;2.57;;;1.97;;
77581;SDS011;66726;52.388;9.986;2023-02-04T04:36:08;2.30;;;1.95;;
77581;SDS011;66726;52.388;9.986;2023-02-04T04:38:37;2.63;;;2.00;;
77581;SDS011;66726;52.388;9.986;2023-02-04T04:41:05;2.70;;;1.60;;
77581;SDS011;66726;52.388;9.986;2023-02-04T04:43:34;2.92;;;1.80;;
77581;SDS011;66726;52.388;9.986;2023-02-04T04:46:02;2.05;;;1.70;;
77581;SDS011;66726;52.388;9.986;2023-02-04T04:48:31;4.43;;;1.70;;
77581;SDS011;66726;52.388;9.986;2023-02-04T04:50:59;1.63;;;1.50;;
77581;SDS011;66726;52.388;9.986;2023-02-04T04:53:27;2.90;;;1.83;;
77581;SDS011;66726;52.388;9.986;2023-02-04T04:55:56;2.47;;;1.95;;
77581;SDS011;66726;52.388;9.986;2023-02-04T04:58:24;3.42;;;2.00;;
77581;SDS011;66726;52.388;9.986;2023-02-04T05:00:52;4.75;;;1.83;;
77581;SDS011;66726;52.388;9.986;2023-02-04T05:03:20;2.20;;;1.80;;
77581;SDS011;66726;52.388;9.986;2023-02-04T05:05:48;2.95;;;1.80;;
77581;SDS011;66726;52.388;9.986;2023-02-04T05:08:16;2.03;;;1.83;;
77581;SDS011;66726;52.388;9.986;2023-02-04T05:10:46;3.25;;;1.90;;
77581;SDS011;66726;52.388;9.986;2023-02-04T05:13:15;2.13;;;1.90;;
77581;SDS011;66726;52.388;9.986;2023-02-04T05:15:43;3.20;;;2.20;;
77581;SDS011;66726;52.388;9.986;2023-02-04T05:18:11;2.13;;;1.90;;
77581;SDS011;66726;52.388;9.986;2023-02-04T05:20:39;2.60;;;2.20;;
77581;SDS011;66726;52.388;9.986;2023-02-04T05:23:07;2.93;;;2.43;;
77581;SDS011;66726;52.388;9.986;2023-02-04T05:25:35;3.38;;;2.20;;
77581;SDS011;66726;52.388;9.986;2023-02-04T05:28:03;2.65;;;2.30;;
77581;SDS011;66726;52.388;9.986;2023-02-04T05:30:33;3.78;;;2.60;;
77581;SDS011;66726;52.388;9.986;2023-02-04T05:33:01;3.53;;;2.40;;
77581;SDS011;66726;52.388;9.986;2023-02-04T05:35:29;2.55;;;2.33;;
77581;SDS011;66726;52.388;9.986;2023-02-04T05:37:58;2.55;;;2.22;;
77581;SDS011;66726;52.388;9.986;2023-02-04T05:40:26;3.45;;;2.20;;
77581;SDS011;66726;52.388;9.986;2023-02-04T05:42:54;2.35;;;2.00;;
77581;SDS011;66726;52.388;9.986;2023-02-04T05:45:22;3.27;;;2.20;;
77581;SDS011;66726;52.388;9.986;2023-02-04T05:47:52;2.50;;;2.05;;
77581;SDS011;66726;52.388;9.986;2023-02-04T05:50:20;2.70;;;2.20;;
77581;SDS011;66726;52.388;9.986;2023-02-04T05:52:48;2.40;;;2.08;;
77581;SDS011;66726;52.388;9.986;2023-02-04T05:55:17;2.88;;;2.20;;
77581;SDS011;66726;52.388;9.986;2023-02-04T05:57:45;3.05;;;2.30;;
77581;SDS011;66726;52.388;9.986;2023-02-04T06:00:13;2.78;;;2.00;;
77581;SDS011;66726;52.388;9.986;2023-02-04T06:02:41;2.60;;;1.90;;
77581;SDS011;66726;52.388;9.986;2023-02-04T06:05:10;2.92;;;2.10;;
77581;SDS011;66726;52.388;9.986;2023-02-04T06:07:39;2.88;;;1.98;;
77581;SDS011;66726;52.388;9.986;2023-02-04T06:10:08;2.70;;;2.17;;
77581;SDS011;66726;52.388;9.986;2023-02-04T06:12:37;3.88;;;2.30;;
77581;SDS011;66726;52.388;9.986;2023-02-04T06:15:06;2.65;;;2.05;;
77581;SDS011;66726;52.388;9.986;2023-02-04T06:17:35;3.50;;;2.50;;
77581;SDS011;66726;52.388;9.986;2023-02-04T06:20:03;3.60;;;2.20;;
77581;SDS011;66726;52.388;9.986;2023-02-04T06:22:34;2.47;;;2.15;;
77581;SDS011;66726;52.388;9.986;2023-02-04T06:25:02;3.90;;;2.30;;
77581;SDS011;66726;52.388;9.986;2023-02-04T06:27:30;3.75;;;2.50;;
77581;SDS011;66726;52.388;9.986;2023-02-04T06:29:58;4.10;;;2.60;;
77581;SDS011;66726;52.388;9.986;2023-02-04T06:32:27;3.50;;;2.45;;
77581;SDS011;66726;52.388;9.986;2023-02-04T06:34:55;3.93;;;2.23;;
77581;SDS011;66726;52.388;9.986;2023-02-04T06:37:23;4.05;;;2.40;;
77581;SDS011;66726;52.388;9.986;2023-02-04T06:39:52;2.80;;;2.47;;
77581;SDS011;66726;52.388;9.986;2023-02-04T06:42:22;4.28;;;2.20;;
77581;SDS011;66726;52.388;9.986;2023-02-04T06:44:51;3.50;;;2.55;;
77581;SDS011;66726;52.388;9.986;2023-02-04T06:47:19;4.72;;;2.50;;
77581;SDS011;66726;52.388;9.986;2023-02-04T06:49:47;3.65;;;2.53;;
77581;SDS011;66726;52.388;9.986;2023-02-04T06:52:15;2.85;;;2.25;;
77581;SDS011;66726;52.388;9.986;2023-02-04T06:54:43;3.53;;;2.70;;
77581;SDS011;66726;52.388;9.986;2023-02-04T06:57:13;3.97;;;2.67;;
77581;SDS011;66726;52.388;9.986;2023-02-04T06:59:41;3.05;;;2.40;;
77581;SDS011;66726;52.388;9.986;2023-02-04T07:02:09;3.55;;;2.75;;
77581;SDS011;66726;52.388;9.986;2023-02-04T07:04:38;4.80;;;3.33;;
77581;SDS011;66726;52.388;9.986;2023-02-04T07:07:07;4.18;;;2.80;;
77581;SDS011;66726;52.388;9.986;2023-02-04T07:09:35;3.78;;;2.97;;
77581;SDS011;66726;52.388;9.986;2023-02-04T07:12:05;3.35;;;3.00;;
77581;SDS011;66726;52.388;9.986;2023-02-04T07:14:35;3.40;;;3.10;;
77581;SDS011;66726;52.388;9.986;2023-02-04T07:17:03;4.43;;;3.00;;
77581;SDS011;66726;52.388;9.986;2023-02-04T07:19:31;3.88;;;2.90;;
77581;SDS011;66726;52.388;9.986;2023-02-04T07:22:00;4.38;;;2.90;;
77581;SDS011;66726;52.388;9.986;2023-02-04T07:24:28;4.43;;;2.97;;
77581;SDS011;66726;52.388;9.986;2023-02-04T07:26:56;3.67;;;2.87;;
77581;SDS011;66726;52.388;9.986;2023-02-04T07:29:27;3.78;;;3.10;;
77581;SDS011;66726;52.388;9.986;2023-02-04T07:31:57;3.60;;;3.20;;
77581;SDS011;66726;52.388;9.986;2023-02-04T07:34:25;3.97;;;3.47;;
77581;SDS011;66726;52.388;9.986;2023-02-04T07:36:53;3.72;;;3.17;;
77581;SDS011;66726;52.388;9.986;2023-02-04T07:39:21;5.72;;;3.50;;
77581;SDS011;66726;52.388;9.986;2023-02-04T07:41:49;5.90;;;3.47;;
77581;SDS011;66726;52.388;9.986;2023-02-04T07:44:18;3.85;;;3.45;;
77581;SDS011;66726;52.388;9.986;2023-02-04T07:46:46;5.32;;;3.92;;
77581;SDS011;66726;52.388;9.986;2023-02-04T07:49:15;4.45;;;3.50;;
77581;SDS011;66726;52.388;9.986;2023-02-04T07:51:43;4.50;;;3.70;;
77581;SDS011;66726;52.388;9.986;2023-02-04T07:54:11;4.45;;;3.72;;
77581;SDS011;66726;52.388;9.986;2023-02-04T07:56:39;4.78;;;4.28;;
77581;SDS011;66726;52.388;9.986;2023-02-04T07:59:07;4.95;;;4.10;;
77581;SDS011;66726;52.388;9.986;2023-02-04T08:01:35;6.60;;;3.90;;
77581;SDS011;66726;52.388;9.986;2023-02-04T08:04:03;4.07;;;3.60;;
77581;SDS011;66726;52.388;9.986;2023-02-04T08:06:33;4.70;;;4.05;;
77581;SDS011;66726;52.388;9.986;2023-02-04T08:09:01;4.90;;;4.40;;
77581;SDS011;66726;52.388;9.986;2023-02-04T08:11:29;4.88;;;4.30;;
77581;SDS011;66726;52.388;9.986;2023-02-04T08:13:57;7.82;;;4.82;;
77581;SDS011;66726;52.388;9.986;2023-02-04T08:16:25;5.40;;;4.60;;
77581;SDS011;66726;52.388;9.986;2023-02-04T08:18:54;5.57;;;4.60;;
77581;SDS011;66726;52.388;9.986;2023-02-04T08:21:22;5.22;;;4.68;;
77581;SDS011;66726;52.388;9.986;2023-02-04T08:23:51;6.28;;;5.07;;
77581;SDS011;66726;52.388;9.986;2023-02-04T08:26:19;5.93;;;5.32;;
77581;SDS011;66726;52.388;9.986;2023-02-04T08:28:47;6.35;;;5.43;;
77581;SDS011;66726;52.388;9.986;2023-02-04T08:31:16;5.97;;;5.00;;
77581;SDS011;66726;52.388;9.986;2023-02-04T08:33:44;5.97;;;4.55;;
77581;SDS011;66726;52.388;9.986;2023-02-04T08:36:12;5.63;;;4.45;;
77581;SDS011;66726;52.388;9.986;2023-02-04T08:38:40;7.07;;;5.05;;
77581;SDS011;66726;52.388;9.986;2023-02-04T08:41:11;5.00;;;4.50;;
77581;SDS011;66726;52.388;9.986;2023-02-04T08:43:39;5.63;;;4.07;;
77581;SDS011;66726;52.388;9.986;2023-02-04T08:46:07;5.18;;;4.00;;
77581;SDS011;66726;52.388;9.986;2023-02-04T08:48:35;6.13;;;4.20;;
77581;SDS011;66726;52.388;9.986;2023-02-04T08:51:04;6.03;;;4.18;;
77581;SDS011;66726;52.388;9.986;2023-02-04T08:53:32;4.65;;;3.70;;
77581;SDS011;66726;52.388;9.986;2023-02-04T08:56:00;4.40;;;4.00;;
77581;SDS011;66726;52.388;9.986;2023-02-04T08:58:30;5.70;;;4.00;;
77581;SDS011;66726;52.388;9.986;2023-02-04T09:00:58;5.85;;;3.60;;
77581;SDS011;66726;52.388;9.986;2023-02-04T09:03:27;4.25;;;3.80;;
77581;SDS011;66726;52.388;9.986;2023-02-04T09:05:55;5.95;;;3.83;;
77581;SDS011;66726;52.388;9.986;2023-02-04T09:08:23;4.47;;;3.35;;
77581;SDS011;66726;52.388;9.986;2023-02-04T09:10:51;7.47;;;3.92;;
77581;SDS011;66726;52.388;9.986;2023-02-04T09:13:19;4.70;;;3.72;;
77581;SDS011;66726;52.388;9.986;2023-02-04T09:15:48;4.13;;;3.60;;
77581;SDS011;66726;52.388;9.986;2023-02-04T09:18:19;5.13;;;4.00;;
77581;SDS011;66726;52.388;9.986;2023-02-04T09:20:50;4.57;;;3.60;;
77581;SDS011;66726;52.388;9.986;2023-02-04T09:23:18;5.43;;;3.50;;
77581;SDS011;66726;52.388;9.986;2023-02-04T09:25:48;4.28;;;3.50;;
77581;SDS011;66726;52.388;9.986;2023-02-04T09:28:16;3.90;;;3.50;;
77581;SDS011;66726;52.388;9.986;2023-02-04T09:30:44;4.85;;;3.50;;
77581;SDS011;66726;52.388;9.986;2023-02-04T09:33:15;5.38;;;3.88;;
77581;SDS011;66726;52.388;9.986;2023-02-04T09:35:43;5.10;;;3.05;;
77581;SDS011;66726;52.388;9.986;2023-02-04T09:38:11;3.60;;;3.08;;
77581;SDS011;66726;52.388;9.986;2023-02-04T09:40:40;4.93;;;3.08;;
77581;SDS011;66726;52.388;9.986;2023-02-04T09:43:17;5.03;;;3.40;;
77581;SDS011;66726;52.388;9.986;2023-02-04T09:45:51;3.83;;;3.25;;
77581;SDS011;66726;52.388;9.986;2023-02-04T09:48:22;4.10;;;3.33;;
77581;SDS011;66726;52.388;9.986;2023-02-04T09:50:51;4.03;;;3.38;;
77581;SDS011;66726;52.388;9.986;2023-02-04T09:53:29;4.00;;;2.90;;
77581;SDS011;66726;52.388;9.986;2023-02-04T09:55:59;4.25;;;2.75;;
77581;SDS011;66726;52.388;9.986;2023-02-04T09:58:28;4.60;;;3.13;;
77581;SDS011;66726;52.388;9.986;2023-02-04T10:01:00;4.75;;;3.05;;
77581;SDS011;66726;52.388;9.986;2023-02-04T10:03:40;4.25;;;3.00;;
77581;SDS011;66726;52.388;9.986;2023-02-04T10:06:13;3.75;;;3.00;;
77581;SDS011;66726;52.388;9.986;2023-02-04T10:08:43;5.00;;;2.85;;
77581;SDS011;66726;52.388;9.986;2023-02-04T10:11:16;3.57;;;2.80;;
77581;SDS011;66726;52.388;9.986;2023-02-04T10:13:47;3.97;;;2.78;;
77581;SDS011;66726;52.388;9.986;2023-02-04T10:16:19;3.88;;;2.90;;
77581;SDS011;66726;52.388;9.986;2023-02-04T10:18:57;4.90;;;3.10;;
77581;SDS011;66726;52.388;9.986;2023-02-04T10:21:28;3.55;;;2.92;;
77581;SDS011;66726;52.388;9.986;2023-02-04T10:23:58;2.92;;;2.63;;
77581;SDS011;66726;52.388;9.986;2023-02-04T10:26:30;4.20;;;2.80;;
77581;SDS011;66726;52.388;9.986;2023-02-04T10:29:00;4.05;;;3.00;;
77581;SDS011;66726;52.388;9.986;2023-02-04T10:31:35;4.90;;;3.10;;
77581;SDS011;66726;52.388;9.986;2023-02-04T10:34:08;4.30;;;2.75;;
77581;SDS011;66726;52.388;9.986;2023-02-04T10:36:44;3.53;;;2.50;;
77581;SDS011;66726;52.388;9.986;2023-02-04T10:39:15;4.72;;;2.72;;
77581;SDS011;66726;52.388;9.986;2023-02-04T10:41:46;4.05;;;2.90;;
77581;SDS011;66726;52.388;9.986;2023-02-04T10:44:17;4.32;;;2.83;;
77581;SDS011;66726;52.388;9.986;2023-02-04T10:46:48;3.60;;;2.70;;
77581;SDS011;66726;52.388;9.986;2023-02-04T10:49:21;4.00;;;2.20;;
77581;SDS011;66726;52.388;9.986;2023-02-04T10:51:51;3.42;;;2.58;;
77581;SDS011;66726;52.388;9.986;2023-02-04T10:54:25;3.50;;;2.40;;
77581;SDS011;66726;52.388;9.986;2023-02-04T10:57:05;3.65;;;2.47;;
77581;SDS011;66726;52.388;9.986;2023-02-04T10:59:47;3.20;;;2.50;;
77581;SDS011;66726;52.388;9.986;2023-02-04T11:02:26;3.60;;;2.83;;
77581;SDS011;66726;52.388;9.986;2023-02-04T11:05:13;4.13;;;2.95;;
77581;SDS011;66726;52.388;9.986;2023-02-04T11:07:45;4.35;;;3.00;;
77581;SDS011;66726;52.388;9.986;2023-02-04T11:10:15;3.60;;;2.50;;
77581;SDS011;66726;52.388;9.986;2023-02-04T11:12:46;3.27;;;2.40;;
77581;SDS011;66726;52.388;9.986;2023-02-04T11:15:38;3.72;;;3.10;;
77581;SDS011;66726;52.388;9.986;2023-02-04T11:18:11;5.53;;;4.13;;
77581;SDS011;66726;52.388;9.986;2023-02-04T11:20:56;4.88;;;2.78;;
77581;SDS011;66726;52.388;9.986;2023-02-04T11:23:30;2.90;;;2.60;;
77581;SDS011;66726;52.388;9.986;2023-02-04T11:26:06;4.43;;;2.50;;
77581;SDS011;66726;52.388;9.986;2023-02-04T11:28:46;4.10;;;2.30;;
77581;SDS011;66726;52.388;9.986;2023-02-04T11:31:42;2.83;;;2.40;;
77581;SDS011;66726;52.388;9.986;2023-02-04T11:34:24;2.60;;;2.28;;
77581;SDS011;66726;52.388;9.986;2023-02-04T11:37:02;3.47;;;2.10;;
77581;SDS011;66726;52.388;9.986;2023-02-04T11:40:11;3.28;;;2.20;;
77581;SDS011;66726;52.388;9.986;2023-02-04T11:42:58;4.63;;;2.50;;
77581;SDS011;66726;52.388;9.986;2023-02-04T11:45:30;3.55;;;2.47;;
77581;SDS011;66726;52.388;9.986;2023-02-04T11:48:01;4.00;;;2.30;;
77581;SDS011;66726;52.388;9.986;2023-02-04T11:50:38;2.67;;;2.42;;
77581;SDS011;66726;52.388;9.986;2023-02-04T11:53:10;3.70;;;2.45;;
77581;SDS011;66726;52.388;9.986;2023-02-04T11:55:42;4.22;;;2.80;;
77581;SDS011;66726;52.388;9.986;2023-02-04T11:58:13;4.70;;;2.83;;
77581;SDS011;66726;52.388;9.986;2023-02-04T12:00:43;4.13;;;2.72;;
77581;SDS011;66726;52.388;9.986;2023-02-04T12:03:20;4.88;;;3.25;;
77581;SDS011;66726;52.388;9.986;2023-02-04T12:05:52;4.65;;;2.90;;
77581;SDS011;66726;52.388;9.986;2023-02-04T12:08:28;4.00;;;2.47;;
77581;SDS011;66726;52.388;9.986;2023-02-04T12:11:04;3.25;;;2.10;;
77581;SDS011;66726;52.388;9.986;2023-02-04T12:13:44;3.00;;;2.10;;
77581;SDS011;66726;52.388;9.986;2023-02-04T12:16:15;3.88;;;2.58;;
77581;SDS011;66726;52.388;9.986;2023-02-04T12:18:43;5.32;;;3.08;;
77581;SDS011;66726;52.388;9.986;2023-02-04T12:21:12;4.77;;;2.67;;
77581;SDS011;66726;52.388;9.986;2023-02-04T12:23:41;3.10;;;2.50;;
77581;SDS011;66726;52.388;9.986;2023-02-04T12:26:09;3.33;;;2.40;;
77581;SDS011;66726;52.388;9.986;2023-02-04T12:28:38;3.05;;;2.70;;
77581;SDS011;66726;52.388;9.986;2023-02-04T12:31:06;5.28;;;2.97;;
77581;SDS011;66726;52.388;9.986;2023-02-04T12:33:34;3.83;;;2.47;;
77581;SDS011;66726;52.388;9.986;2023-02-04T12:36:03;4.28;;;2.78;;
77581;SDS011;66726;52.388;9.986;2023-02-04T12:38:31;4.10;;;3.00;;
77581;SDS011;66726;52.388;9.986;2023-02-04T12:41:01;4.00;;;2.85;;
77581;SDS011;66726;52.388;9.986;2023-02-04T12:43:29;4.40;;;2.80;;
77581;SDS011;66726;52.388;9.986;2023-02-04T12:45:57;3.70;;;3.05;;
77581;SDS011;66726;52.388;9.986;2023-02-04T12:48:25;3.67;;;3.00;;
77581;SDS011;66726;52.388;9.986;2023-02-04T12:50:53;4.07;;;2.85;;
77581;SDS011;66726;52.388;9.986;2023-02-04T12:53:21;3.17;;;2.60;;
77581;SDS011;66726;52.388;9.986;2023-02-04T12:55:49;3.22;;;2.45;;
77581;SDS011;66726;52.388;9.986;2023-02-04T12:58:19;3.40;;;2.80;;
77581;SDS011;66726;52.388;9.986;2023-02-04T13:00:48;3.78;;;2.78;;
77581;SDS011;66726;52.388;9.986;2023-02-04T13:03:16;4.57;;;2.80;;
77581;SDS011;66726;52.388;9.986;2023-02-04T13:05:44;3.97;;;3.00;;
77581;SDS011;66726;52.388;9.986;2023-02-04T13:08:12;4.50;;;3.23;;
77581;SDS011;66726;52.388;9.986;2023-02-04T13:10:40;4.10;;;2.95;;
77581;SDS011;66726;52.388;9.986;2023-02-04T13:13:08;4.40;;;2.90;;
77581;SDS011;66726;52.388;9.986;2023-02-04T13:15:38;4.45;;;3.15;;
77581;SDS011;66726;52.388;9.986;2023-02-04T13:18:06;4.65;;;3.00;;
77581;SDS011;66726;52.388;9.986;2023-02-04T13:20:34;3.80;;;3.10;;
77581;SDS011;66726;52.388;9.986;2023-02-04T13:23:02;3.90;;;2.90;;
77581;SDS011;66726;52.388;9.986;2023-02-04T13:25:30;4.82;;;2.90;;
77581;SDS011;66726;52.388;9.986;2023-02-04T13:27:59;4.15;;;3.05;;
77581;SDS011;66726;52.388;9.986;2023-02-04T13:30:27;4.15;;;3.00;;
77581;SDS011;66726;52.388;9.986;2023-02-04T13:32:56;4.38;;;2.90;;
77581;SDS011;66726;52.388;9.986;2023-02-04T13:35:24;3.88;;;2.80;;
77581;SDS011;66726;52.388;9.986;2023-02-04T13:37:53;4.72;;;2.80;;
77581;SDS011;66726;52.388;9.986;2023-02-04T13:40:21;4.22;;;2.78;;
77581;SDS011;66726;52.388;9.986;2023-02-04T13:42:49;3.08;;;2.42;;
77581;SDS011;66726;52.388;9.986;2023-02-04T13:45:18;3.63;;;2.38;;
77581;SDS011;66726;52.388;9.986;2023-02-04T13:47:46;3.60;;;2.58;;
77581;SDS011;66726;52.388;9.986;2023-02-04T13:50:16;3.13;;;2.50;;
77581;SDS011;66726;52.388;9.986;2023-02-04T13:52:44;3.17;;;2.05;;
77581;SDS011;66726;52.388;9.986;2023-02-04T13:55:12;3.58;;;2.40;;
77581;SDS011;66726;52.388;9.986;2023-02-04T13:57:41;8.15;;;2.20;;
77581;SDS011;66726;52.388;9.986;2023-02-04T14:00:09;3.30;;;2.20;;
77581;SDS011;66726;52.388;9.986;2023-02-04T14:02:39;3.33;;;2.40;;
77581;SDS011;66726;52.388;9.986;2023-02-04T14:05:07;3.15;;;2.20;;
77581;SDS011;66726;52.388;9.986;2023-02-04T14:07:37;3.13;;;2.20;;
77581;SDS011;66726;52.388;9.986;2023-02-04T14:10:05;2.85;;;2.20;;
77581;SDS011;66726;52.388;9.986;2023-02-04T14:12:34;3.95;;;2.30;;
77581;SDS011;66726;52.388;9.986;2023-02-04T14:15:02;2.97;;;2.40;;
77581;SDS011;66726;52.388;9.986;2023-02-04T14:17:31;3.78;;;2.22;;
77581;SDS011;66726;52.388;9.986;2023-02-04T14:19:59;3.95;;;2.30;;
77581;SDS011;66726;52.388;9.986;2023-02-04T14:22:27;3.45;;;2.20;;
77581;SDS011;66726;52.388;9.986;2023-02-04T14:24:56;3.53;;;2.22;;
77581;SDS011;66726;52.388;9.986;2023-02-04T14:27:24;2.90;;;2.17;;
77581;SDS011;66726;52.388;9.986;2023-02-04T14:29:52;3.35;;;2.30;;
77581;SDS011;66726;52.388;9.986;2023-02-04T14:32:20;3.42;;;2.42;;
77581;SDS011;66726;52.388;9.986;2023-02-04T14:34:49;3.92;;;2.53;;
77581;SDS011;66726;52.388;9.986;2023-02-04T14:37:17;3.25;;;2.33;;
77581;SDS011;66726;52.388;9.986;2023-02-04T14:39:45;3.50;;;2.20;;
77581;SDS011;66726;52.388;9.986;2023-02-04T14:42:14;3.88;;;2.42;;
77581;SDS011;66726;52.388;9.986;2023-02-04T14:44:42;3.80;;;2.30;;
77581;SDS011;66726;52.388;9.986;2023-02-04T14:47:10;3.85;;;2.50;;
77581;SDS011;66726;52.388;9.986;2023-02-04T14:49:39;4.03;;;2.90;;
77581;SDS011;66726;52.388;9.986;2023-02-04T14:52:07;3.58;;;2.45;;
77581;SDS011;66726;52.388;9.986;2023-02-04T14:54:36;3.72;;;2.33;;
77581;SDS011;66726;52.388;9.986;2023-02-04T14:57:04;4.70;;;2.83;;
77581;SDS011;66726;52.388;9.986;2023-02-04T14:59:37;4.80;;;2.60;;
77581;SDS011;66726;52.388;9.986;2023-02-04T15:02:05;3.10;;;2.47;;
77581;SDS011;66726;52.388;9.986;2023-02-04T15:04:34;3.72;;;2.35;;